Lloydminster Airport
CYLL : rendu visible

Aérodrome :











RETROUVEZ-NOUS SUR...

 
LOGIN :

S'inscrire | Disclaimer

   EN    FR    IT 

 









Légende :    VFR   VFR Marginal   IFR   IFR Intensif   IFR Très Intensif
Visi : 
Plafond : 
>= 8 km
>= 3000ft
5 à 8 km
1000 à 3000 ft
1500m à 5 km
500 à 1000 ft
800 à 1500m
200 à 500 ft
< 800m
< 200 ft
Symboles :   Orages  Brouillard  Fortes neiges  Fortes précipitations  Vent > 20 kt






- Altitude de l'aérodrome : 2193 ft
- Code IATA : YLL


CYLL - Lloydminster

DERNIER METAR :
  • 312042Z 15019G27KT 15SM BKN048 BKN140 OVC250 22/12 A2953 RMK SC5AC1CI2 SLP002 DENSITY ALT 4000FT

METARs EXPIRÉS :
  • 312026Z 16021KT 15SM -SHRA BKN048 OVC250 22/12 A2954 RMK SC5CI3 SLP004 DENSITY ALT 4000FT
  • 312000Z 16018G24KT 15SM SCT048 SCT090 OVC250 23/12 A2953 RMK SC3ACC1CI4 SLP001 DENSITY ALT 4100FT
  • 311900Z 16019G26KT 15SM FEW140 BKN250 24/12 A2954 RMK AC1CI6 SLP004 DENSITY ALT 4200FT
  • 311800Z 14023G32KT 15SM FEW140 BKN250 22/11 A2952 RMK AC1CI6 SLP998 DENSITY ALT 4000FT

TAF TAF CYLL
Valide du 31 à 18h jusqu'au 01 à 06h UTC


311739Z 3118/0106 13020G30KT P6SM FEW040 SCT140
BECMG 3119/3121 15015G25KT
FM312100 15015G25KT P6SM BKN050 OVC120
FM010000 17020G30KT P6SM -SHRA OVC070
PROB40 0100/0103 VRB30G40KT 3SM TSRA SCT030 OVC050CB
FM010300 23025G35KT P6SM -SHRA SCT012 OVC030
TEMPO 0103/0106 3SM -SHRA BR SCT008 OVC012
BECMG 0104/0106 26035G45KT RMK NXT FCST BY 010000Z
FIR CZEG / Amérique du Nord



MET'MAP, la Météo Aéronautique d'un coup d'oeil ! - Copyright ORBIFLY Décembre 2007 - Disclaimer

ORBIFLY MET'MAP TEAM :

Programmation & Développement : Alexandra Zaïnal
Sur une idée originale de : Baudouin d'Aumeries
Assistance à la programmation : Marc-Olivier Méhu
Soutien technique & logistique : Manuel Goepfert

Contact : metmap@orbifly.com




SOURCES & CREDITS :

   NOAA       Earth
Advisory